Celandine — ONDN — position and weather

sailwx.info

Track history (hours):
 
Tides and Currents Weather Stations Pressure Air Temp Water Temp Dewpoint Dewpoint Depression Visibility Wind Speed Wind Dir Waves Ship Positions

Celandine

Last reported at 2015-Jul-07 19:32 UTC. Time now 2015-Jul-07 19:42 UTC.
Position N 51°21' E 003°13'.

Length 162 m; draft 5.8 m.

Type: Ship (hazmat cat A). MMSI: 205476000.

Date/timePositionNaut miles runAvg speedWind from/ knotsBaromVisibWave heightAir tempDewpointWater temp
2015-Jul-07 19:32N 51°21' E 003°13'0 0.0
2015-Jul-07 18:32N 51°21' E 003°13'0 0.0
2015-Jul-07 17:32N 51°21' E 003°13'0 0.0
2015-Jul-07 16:32N 51°21' E 003°13'0 0.0
2015-Jul-07 15:32N 51°21' E 003°13'0 0.0
2015-Jul-07 14:32N 51°21' E 003°13'1 0.9
2015-Jul-07 13:33N 51°21' E 003°12'1313.5
2015-Jul-07 12:33N 51°28' E 002°54'1515.0
2015-Jul-07 11:33N 51°34' E 002°32'1515.2
2015-Jul-07 10:33N 51°34' E 002°07'1515.3
2015-Jul-07 09:33N 51°32' E 001°43'1716.5
2015-Jul-07 08:33N 51°29' E 001°17'1716.9
2015-Jul-07 07:33N 51°29' E 000°50'1515.2
2015-Jul-07 06:34N 51°27' E 000°26'7 6.9
2015-Jul-07 05:34N 51°28' E 000°15'0 0.0
2015-Jul-07 04:34N 51°28' E 000°15'0 0.0
2015-Jul-07 03:34N 51°28' E 000°15'0 0.0
2015-Jul-07 02:34N 51°28' E 000°15'0 0.0
2015-Jul-07 01:34N 51°28' E 000°15'0 0.0
2015-Jul-07 00:34N 51°28' E 000°15'0 0.0
2015-Jul-06 23:33N 51°28' E 000°15'3 3.0
2015-Jul-06 22:33N 51°28' E 000°20'9 9.2
2015-Jul-06 21:34N 51°30' E 000°34'1414.0
2015-Jul-06 20:34N 51°29' E 000°56'1313.1
2015-Jul-06 19:33N 51°29' E 001°17'1313.1
2015-Jul-06 18:33N 51°31' E 001°38'1313.2
2015-Jul-06 17:33N 51°36' E 001°58'1211.4
2015-Jul-06 16:30N 51°38' E 002°17'1313.8
2015-Jul-06 15:33N 51°35' E 002°37'1413.8
2015-Jul-06 14:33N 51°28' E 002°56'1212.4
2015-Jul-06 13:33N 51°21' E 003°13'0 0.0
2015-Jul-06 12:33N 51°21' E 003°13'0 0.0
2015-Jul-06 11:33N 51°21' E 003°13'0 0.0
2015-Jul-06 10:33N 51°21' E 003°13'0 0.0
2015-Jul-06 09:33N 51°21' E 003°13'0 0.0
2015-Jul-06 08:33N 51°21' E 003°13'0 0.3
2015-Jul-06 07:33N 51°20' E 003°13'0 0.0
2015-Jul-06 05:12N 51°20' E 003°13'0 0.0
2015-Jul-06 04:33N 51°20' E 003°13'5 5.3
2015-Jul-06 03:33N 51°24' E 003°06'1414.3
2015-Jul-06 02:34N 51°22' E 002°44'1514.6
2015-Jul-06 01:33N 51°20' E 002°21'1414.5
2015-Jul-06 00:33N 51°12' E 002°01'1413.8
2015-Jul-05 23:31N 51°04' E 001°43'1313.6
2015-Jul-05 22:32N 50°53' E 001°28'2713.1
2015-Jul-05 20:27N 50°31' E 001°05'6713.6
2015-Jul-05 15:32N 50°12' W 000°36'22211.1
2015-Jul-04 19:33N 51°43' W 005°58'1313.3
2015-Jul-04 18:33N 51°56' W 005°54'1414.5
2015-Jul-04 17:33N 52°11' W 005°53'1716.8
2015-Jul-04 16:33N 52°27' W 005°53'5 0.3
2015-Jul-04 01:33N 52°32' W 005°50'17612.3
2015-Jul-03 11:12N 49°55' W 003°42'1517.2
2015-Jul-03 10:20N 49°55' W 003°19'1215.6
2015-Jul-03 09:33N 49°57' W 003°01'1514.8
2015-Jul-03 08:34N 50°02' W 002°39'1414.0
2015-Jul-03 07:33N 50°06' W 002°18'1614.2
2015-Jul-03 06:27N 50°10' W 001°55'1415.5
2015-Jul-03 05:33N 50°14' W 001°34'1917.6
2015-Jul-03 04:29N 50°20' W 001°06'2018.9
2015-Jul-03 03:24N 50°25' W 000°35'1618.3
2015-Jul-03 02:31N 50°29' W 000°10'1817.3
2015-Jul-03 01:29N 50°34' E 000°17'1516.3
2015-Jul-03 00:33N 50°39' E 000°39'1514.8
2015-Jul-02 23:33N 50°47' E 000°58'1414.3
2015-Jul-02 22:34N 50°57' E 001°15'1615.5
2015-Jul-02 21:33N 51°07' E 001°33'1817.6
2015-Jul-02 20:33N 51°20' E 001°53'1413.7
2015-Jul-02 19:33N 51°21' E 002°15'1816.4
2015-Jul-02 18:26N 51°21' E 002°44'1416.4
2015-Jul-02 17:33N 51°24' E 003°07'5 1.6
2015-Jul-02 14:29N 51°20' E 003°13'0 0.0
2015-Jul-02 07:20N 51°20' E 003°13'0 0.0
2015-Jul-02 05:05N 51°20' E 003°13'0 0.2
2015-Jul-02 04:32N 51°20' E 003°13'0 0.2
2015-Jul-02 03:23N 51°21' E 003°13'0 0.0
2015-Jul-02 02:20N 51°21' E 003°13'0 0.0
2015-Jul-02 01:32N 51°21' E 003°13'0 0.0
2015-Jul-02 00:26N 51°21' E 003°13'0 0.0
2015-Jul-01 23:32N 51°21' E 003°13'0 0.0
2015-Jul-01 22:32N 51°21' E 003°13'0 0.0
2015-Jul-01 21:32N 51°21' E 003°13'0 0.0
2015-Jul-01 20:32N 51°21' E 003°13'0 0.2
2015-Jul-01 19:34N 51°21' E 003°13'9 9.0
2015-Jul-01 18:33N 51°25' E 003°00'1615.3
2015-Jul-01 17:30N 51°35' E 002°39'1415.2
2015-Jul-01 16:34N 51°37' E 002°16'1515.4
2015-Jul-01 15:33N 51°35' E 001°52'1717.1
2015-Jul-01 14:34N 51°29' E 001°26'1717.1
2015-Jul-01 13:34N 51°29' E 000°59'1716.9
2015-Jul-01 12:34N 51°30' E 000°32'8 8.1
2015-Jul-01 11:33N 51°28' E 000°19'3 2.7
2015-Jul-01 10:32N 51°28' E 000°15'0 0.0
2015-Jul-01 09:32N 51°28' E 000°15'0 0.0
2015-Jul-01 08:32N 51°28' E 000°15'0 0.0
2015-Jul-01 07:32N 51°28' E 000°15'0 0.0
2015-Jul-01 06:32N 51°28' E 000°15'0 0.0
2015-Jul-01 05:34N 51°28' E 000°15'4 4.1
2015-Jul-01 04:34N 51°27' E 000°21'1110.5
2015-Jul-01 03:33N 51°30' E 000°38'1313.5
2015-Jul-01 02:33N 51°29' E 000°59'1413.9
2015-Jul-01 01:33N 51°29' E 001°22'1515.0
2015-Jul-01 00:33N 51°33' E 001°45'1515.1
2015-Jun-30 23:33N 51°38' E 002°08'1514.8
2015-Jun-30 22:33N 51°35' E 002°31'1515.1
2015-Jun-30 21:33N 51°29' E 002°53'1413.7
2015-Jun-30 20:33N 51°21' E 003°12'1 1.1
2015-Jun-30 19:30N 51°21' E 003°13'0 0.0
2015-Jun-30 18:24N 51°21' E 003°13'0 0.0
2015-Jun-30 17:33N 51°21' E 003°13'0 0.0
2015-Jun-30 16:33N 51°21' E 003°13'0 0.0
2015-Jun-30 15:33N 51°21' E 003°13'0 0.0
2015-Jun-30 14:32N 51°21' E 003°13'0 0.2
2015-Jun-30 13:33N 51°21' E 003°13'10 9.8
2015-Jun-30 12:34N 51°26' E 002°59'1716.5
2015-Jun-30 11:34N 51°35' E 002°37'1716.5
2015-Jun-30 10:34N 51°39' E 002°11'1616.3
2015-Jun-30 09:34N 51°34' E 001°47'1515.5
2015-Jun-30 08:34N 51°29' E 001°23'1414.0
2015-Jun-30 07:33N 51°29' E 001°01'1515.1
2015-Jun-30 06:33N 51°30' E 000°36'10 9.7
2015-Jun-30 05:33N 51°27' E 000°22'4 4.5
2015-Jun-30 04:33N 51°28' E 000°15'0 0.0
2015-Jun-30 03:33N 51°28' E 000°15'0 0.0
2015-Jun-30 02:33N 51°28' E 000°15'0 0.0
2015-Jun-30 01:33N 51°28' E 000°15'0 0.0
2015-Jun-30 00:33N 51°28' E 000°15'0 0.0
2015-Jun-29 23:33N 51°28' E 000°15'4 4.2
2015-Jun-29 22:34N 51°27' E 000°21'7 7.0
2015-Jun-29 21:33N 51°30' E 000°31'1515.0
2015-Jun-29 20:34N 51°29' E 000°55'1716.6
2015-Jun-29 19:33N 51°29' E 001°22'1414.4
2015-Jun-29 18:33N 51°33' E 001°44'1212.2
2015-Jun-29 17:33N 51°37' E 002°03'9 9.2
2015-Jun-29 16:32N 51°38' E 002°18'1414.3
2015-Jun-29 15:33N 51°34' E 002°39'1616.0
2015-Jun-29 14:34N 51°26' E 003°01'9 8.7
2015-Jun-29 13:31N 51°21' E 003°13'0 0.0
2015-Jun-29 12:28N 51°21' E 003°13'0 0.0
2015-Jun-29 11:25N 51°21' E 003°13'0 0.0
2015-Jun-29 10:31N 51°21' E 003°13'0 0.0
2015-Jun-29 09:31N 51°21' E 003°13'0 0.1
2015-Jun-29 08:33N 51°21' E 003°13'0 0.1
2015-Jun-29 05:22N 51°20' E 003°13'0 0.5
2015-Jun-29 04:34N 51°21' E 003°12'1111.1
2015-Jun-29 03:33N 51°22' E 002°55'1514.8
2015-Jun-29 02:32N 51°22' E 002°30'1414.9
2015-Jun-29 01:33N 51°16' E 002°09'1515.0
2015-Jun-29 00:33N 51°08' E 001°49'1915.8
2015-Jun-28 23:21N 50°54' E 001°29'1316.3
2015-Jun-28 22:32N 50°41' E 001°20'5717.4
2015-Jun-28 19:16N 50°18' W 000°01'1718.7
2015-Jun-28 18:21N 50°13' W 000°27'1519.2
2015-Jun-28 17:33N 50°10' W 000°50'2019.6
2015-Jun-28 16:33N 50°06' W 001°20'2019.2
2015-Jun-28 15:32N 50°02' W 001°50'5317.0
2015-Jun-28 12:26N 49°54' W 003°11'15511.1
2015-Jun-27 22:33N 51°49' W 005°55'1716.7
2015-Jun-27 21:33N 52°05' W 005°54'1716.7
2015-Jun-27 20:33N 52°22' W 005°53'1616.2
2015-Jun-27 19:33N 52°38' W 005°52'  
Track history (hours):
 
Tides and Currents Weather Stations Pressure Air Temp Water Temp Dewpoint Dewpoint Depression Visibility Wind Speed Wind Dir Waves Ship Positions

Celandine

Last reported at 2015-Jul-07 19:32 UTC. Time now 2015-Jul-07 19:42 UTC.
Position N 51°21' E 003°13'.

Length 162 m; draft 5.8 m.

Type: Ship (hazmat cat A). MMSI: 205476000.

Date/timePositionNaut miles runAvg speedWind from/ knotsBaromVisibWave heightAir tempDewpointWater temp
2015-Jul-07 19:32N 51°21' E 003°13'0 0.0
2015-Jul-07 18:32N 51°21' E 003°13'0 0.0
2015-Jul-07 17:32N 51°21' E 003°13'0 0.0
2015-Jul-07 16:32N 51°21' E 003°13'0 0.0
2015-Jul-07 15:32N 51°21' E 003°13'0 0.0
2015-Jul-07 14:32N 51°21' E 003°13'1 0.9
2015-Jul-07 13:33N 51°21' E 003°12'1313.5
2015-Jul-07 12:33N 51°28' E 002°54'1515.0
2015-Jul-07 11:33N 51°34' E 002°32'1515.2
2015-Jul-07 10:33N 51°34' E 002°07'1515.3
2015-Jul-07 09:33N 51°32' E 001°43'1716.5
2015-Jul-07 08:33N 51°29' E 001°17'1716.9
2015-Jul-07 07:33N 51°29' E 000°50'1515.2
2015-Jul-07 06:34N 51°27' E 000°26'7 6.9
2015-Jul-07 05:34N 51°28' E 000°15'0 0.0
2015-Jul-07 04:34N 51°28' E 000°15'0 0.0
2015-Jul-07 03:34N 51°28' E 000°15'0 0.0
2015-Jul-07 02:34N 51°28' E 000°15'0 0.0
2015-Jul-07 01:34N 51°28' E 000°15'0 0.0
2015-Jul-07 00:34N 51°28' E 000°15'0 0.0
2015-Jul-06 23:33N 51°28' E 000°15'3 3.0
2015-Jul-06 22:33N 51°28' E 000°20'9 9.2
2015-Jul-06 21:34N 51°30' E 000°34'1414.0
2015-Jul-06 20:34N 51°29' E 000°56'1313.1
2015-Jul-06 19:33N 51°29' E 001°17'1313.1
2015-Jul-06 18:33N 51°31' E 001°38'1313.2
2015-Jul-06 17:33N 51°36' E 001°58'1211.4
2015-Jul-06 16:30N 51°38' E 002°17'1313.8
2015-Jul-06 15:33N 51°35' E 002°37'1413.8
2015-Jul-06 14:33N 51°28' E 002°56'1212.4
2015-Jul-06 13:33N 51°21' E 003°13'0 0.0
2015-Jul-06 12:33N 51°21' E 003°13'0 0.0
2015-Jul-06 11:33N 51°21' E 003°13'0 0.0
2015-Jul-06 10:33N 51°21' E 003°13'0 0.0
2015-Jul-06 09:33N 51°21' E 003°13'0 0.0
2015-Jul-06 08:33N 51°21' E 003°13'0 0.3
2015-Jul-06 07:33N 51°20' E 003°13'0 0.0
2015-Jul-06 05:12N 51°20' E 003°13'0 0.0
2015-Jul-06 04:33N 51°20' E 003°13'5 5.3
2015-Jul-06 03:33N 51°24' E 003°06'1414.3
2015-Jul-06 02:34N 51°22' E 002°44'1514.6
2015-Jul-06 01:33N 51°20' E 002°21'1414.5
2015-Jul-06 00:33N 51°12' E 002°01'1413.8
2015-Jul-05 23:31N 51°04' E 001°43'1313.6
2015-Jul-05 22:32N 50°53' E 001°28'2713.1
2015-Jul-05 20:27N 50°31' E 001°05'6713.6
2015-Jul-05 15:32N 50°12' W 000°36'22211.1
2015-Jul-04 19:33N 51°43' W 005°58'1313.3
2015-Jul-04 18:33N 51°56' W 005°54'1414.5
2015-Jul-04 17:33N 52°11' W 005°53'1716.8
2015-Jul-04 16:33N 52°27' W 005°53'5 0.3
2015-Jul-04 01:33N 52°32' W 005°50'17612.3
2015-Jul-03 11:12N 49°55' W 003°42'1517.2
2015-Jul-03 10:20N 49°55' W 003°19'1215.6
2015-Jul-03 09:33N 49°57' W 003°01'1514.8
2015-Jul-03 08:34N 50°02' W 002°39'1414.0
2015-Jul-03 07:33N 50°06' W 002°18'1614.2
2015-Jul-03 06:27N 50°10' W 001°55'1415.5
2015-Jul-03 05:33N 50°14' W 001°34'1917.6
2015-Jul-03 04:29N 50°20' W 001°06'2018.9
2015-Jul-03 03:24N 50°25' W 000°35'1618.3
2015-Jul-03 02:31N 50°29' W 000°10'1817.3
2015-Jul-03 01:29N 50°34' E 000°17'1516.3
2015-Jul-03 00:33N 50°39' E 000°39'1514.8
2015-Jul-02 23:33N 50°47' E 000°58'1414.3
2015-Jul-02 22:34N 50°57' E 001°15'1615.5
2015-Jul-02 21:33N 51°07' E 001°33'1817.6
2015-Jul-02 20:33N 51°20' E 001°53'1413.7
2015-Jul-02 19:33N 51°21' E 002°15'1816.4
2015-Jul-02 18:26N 51°21' E 002°44'1416.4
2015-Jul-02 17:33N 51°24' E 003°07'5 1.6
2015-Jul-02 14:29N 51°20' E 003°13'0 0.0
2015-Jul-02 07:20N 51°20' E 003°13'0 0.0
2015-Jul-02 05:05N 51°20' E 003°13'0 0.2
2015-Jul-02 04:32N 51°20' E 003°13'0 0.2
2015-Jul-02 03:23N 51°21' E 003°13'0 0.0
2015-Jul-02 02:20N 51°21' E 003°13'0 0.0
2015-Jul-02 01:32N 51°21' E 003°13'0 0.0
2015-Jul-02 00:26N 51°21' E 003°13'0 0.0
2015-Jul-01 23:32N 51°21' E 003°13'0 0.0
2015-Jul-01 22:32N 51°21' E 003°13'0 0.0
2015-Jul-01 21:32N 51°21' E 003°13'0 0.0
2015-Jul-01 20:32N 51°21' E 003°13'0 0.2
2015-Jul-01 19:34N 51°21' E 003°13'9 9.0
2015-Jul-01 18:33N 51°25' E 003°00'1615.3
2015-Jul-01 17:30N 51°35' E 002°39'1415.2
2015-Jul-01 16:34N 51°37' E 002°16'1515.4
2015-Jul-01 15:33N 51°35' E 001°52'1717.1
2015-Jul-01 14:34N 51°29' E 001°26'1717.1
2015-Jul-01 13:34N 51°29' E 000°59'1716.9
2015-Jul-01 12:34N 51°30' E 000°32'8 8.1
2015-Jul-01 11:33N 51°28' E 000°19'3 2.7
2015-Jul-01 10:32N 51°28' E 000°15'0 0.0
2015-Jul-01 09:32N 51°28' E 000°15'0 0.0
2015-Jul-01 08:32N 51°28' E 000°15'0 0.0
2015-Jul-01 07:32N 51°28' E 000°15'0 0.0
2015-Jul-01 06:32N 51°28' E 000°15'0 0.0
2015-Jul-01 05:34N 51°28' E 000°15'4 4.1
2015-Jul-01 04:34N 51°27' E 000°21'1110.5
2015-Jul-01 03:33N 51°30' E 000°38'1313.5
2015-Jul-01 02:33N 51°29' E 000°59'1413.9
2015-Jul-01 01:33N 51°29' E 001°22'1515.0
2015-Jul-01 00:33N 51°33' E 001°45'1515.1
2015-Jun-30 23:33N 51°38' E 002°08'1514.8
2015-Jun-30 22:33N 51°35' E 002°31'1515.1
2015-Jun-30 21:33N 51°29' E 002°53'1413.7
2015-Jun-30 20:33N 51°21' E 003°12'1 1.1
2015-Jun-30 19:30N 51°21' E 003°13'0 0.0
2015-Jun-30 18:24N 51°21' E 003°13'0 0.0
2015-Jun-30 17:33N 51°21' E 003°13'0 0.0
2015-Jun-30 16:33N 51°21' E 003°13'0 0.0
2015-Jun-30 15:33N 51°21' E 003°13'0 0.0
2015-Jun-30 14:32N 51°21' E 003°13'0 0.2
2015-Jun-30 13:33N 51°21' E 003°13'10 9.8
2015-Jun-30 12:34N 51°26' E 002°59'1716.5
2015-Jun-30 11:34N 51°35' E 002°37'1716.5
2015-Jun-30 10:34N 51°39' E 002°11'1616.3
2015-Jun-30 09:34N 51°34' E 001°47'1515.5
2015-Jun-30 08:34N 51°29' E 001°23'1414.0
2015-Jun-30 07:33N 51°29' E 001°01'1515.1
2015-Jun-30 06:33N 51°30' E 000°36'10 9.7
2015-Jun-30 05:33N 51°27' E 000°22'4 4.5
2015-Jun-30 04:33N 51°28' E 000°15'0 0.0
2015-Jun-30 03:33N 51°28' E 000°15'0 0.0
2015-Jun-30 02:33N 51°28' E 000°15'0 0.0
2015-Jun-30 01:33N 51°28' E 000°15'0 0.0
2015-Jun-30 00:33N 51°28' E 000°15'0 0.0
2015-Jun-29 23:33N 51°28' E 000°15'4 4.2
2015-Jun-29 22:34N 51°27' E 000°21'7 7.0
2015-Jun-29 21:33N 51°30' E 000°31'1515.0
2015-Jun-29 20:34N 51°29' E 000°55'1716.6
2015-Jun-29 19:33N 51°29' E 001°22'1414.4
2015-Jun-29 18:33N 51°33' E 001°44'1212.2
2015-Jun-29 17:33N 51°37' E 002°03'9 9.2
2015-Jun-29 16:32N 51°38' E 002°18'1414.3
2015-Jun-29 15:33N 51°34' E 002°39'1616.0
2015-Jun-29 14:34N 51°26' E 003°01'9 8.7
2015-Jun-29 13:31N 51°21' E 003°13'0 0.0
2015-Jun-29 12:28N 51°21' E 003°13'0 0.0
2015-Jun-29 11:25N 51°21' E 003°13'0 0.0
2015-Jun-29 10:31N 51°21' E 003°13'0 0.0
2015-Jun-29 09:31N 51°21' E 003°13'0 0.1
2015-Jun-29 08:33N 51°21' E 003°13'0 0.1
2015-Jun-29 05:22N 51°20' E 003°13'0 0.5
2015-Jun-29 04:34N 51°21' E 003°12'1111.1
2015-Jun-29 03:33N 51°22' E 002°55'1514.8
2015-Jun-29 02:32N 51°22' E 002°30'1414.9
2015-Jun-29 01:33N 51°16' E 002°09'1515.0
2015-Jun-29 00:33N 51°08' E 001°49'1915.8
2015-Jun-28 23:21N 50°54' E 001°29'1316.3
2015-Jun-28 22:32N 50°41' E 001°20'5717.4
2015-Jun-28 19:16N 50°18' W 000°01'1718.7
2015-Jun-28 18:21N 50°13' W 000°27'1519.2
2015-Jun-28 17:33N 50°10' W 000°50'2019.6
2015-Jun-28 16:33N 50°06' W 001°20'2019.2
2015-Jun-28 15:32N 50°02' W 001°50'5317.0
2015-Jun-28 12:26N 49°54' W 003°11'15511.1
2015-Jun-27 22:33N 51°49' W 005°55'1716.7
2015-Jun-27 21:33N 52°05' W 005°54'1716.7
2015-Jun-27 20:33N 52°22' W 005°53'1616.2
2015-Jun-27 19:33N 52°38' W 005°52'  

Dump ship's entire track history